sensor_id;sensor_type;location;lat;lon;timestamp;P1;durP1;ratioP1;P2;durP2;ratioP2
37855;SDS011;23694;43.274;26.924;2024-03-22T00:02:07;13.73;;;11.57;;
37855;SDS011;23694;43.274;26.924;2024-03-22T00:04:37;13.90;;;11.63;;
37855;SDS011;23694;43.274;26.924;2024-03-22T00:07:04;15.20;;;12.27;;
37855;SDS011;23694;43.274;26.924;2024-03-22T00:09:31;14.70;;;12.10;;
37855;SDS011;23694;43.274;26.924;2024-03-22T00:11:57;14.07;;;11.47;;
37855;SDS011;23694;43.274;26.924;2024-03-22T00:14:24;14.37;;;11.70;;
37855;SDS011;23694;43.274;26.924;2024-03-22T00:16:50;12.97;;;10.87;;
37855;SDS011;23694;43.274;26.924;2024-03-22T00:19:16;13.60;;;10.27;;
37855;SDS011;23694;43.274;26.924;2024-03-22T00:21:42;14.03;;;11.07;;
37855;SDS011;23694;43.274;26.924;2024-03-22T00:24:08;13.63;;;10.80;;
37855;SDS011;23694;43.274;26.924;2024-03-22T00:26:34;12.50;;;10.13;;
37855;SDS011;23694;43.274;26.924;2024-03-22T00:29:02;10.67;;;9.10;;
37855;SDS011;23694;43.274;26.924;2024-03-22T00:31:29;11.93;;;9.70;;
37855;SDS011;23694;43.274;26.924;2024-03-22T00:33:55;11.50;;;9.73;;
37855;SDS011;23694;43.274;26.924;2024-03-22T00:36:21;10.73;;;9.33;;
37855;SDS011;23694;43.274;26.924;2024-03-22T00:38:48;12.83;;;10.03;;
37855;SDS011;23694;43.274;26.924;2024-03-22T00:41:15;11.37;;;9.70;;
37855;SDS011;23694;43.274;26.924;2024-03-22T00:43:41;11.70;;;8.53;;
37855;SDS011;23694;43.274;26.924;2024-03-22T00:46:07;11.93;;;9.77;;
37855;SDS011;23694;43.274;26.924;2024-03-22T00:48:33;11.43;;;9.07;;
37855;SDS011;23694;43.274;26.924;2024-03-22T00:51:01;11.10;;;9.40;;
37855;SDS011;23694;43.274;26.924;2024-03-22T00:53:27;12.67;;;9.87;;
37855;SDS011;23694;43.274;26.924;2024-03-22T00:55:55;11.50;;;10.00;;
37855;SDS011;23694;43.274;26.924;2024-03-22T00:58:27;11.13;;;9.83;;
37855;SDS011;23694;43.274;26.924;2024-03-22T01:00:54;11.27;;;9.23;;
37855;SDS011;23694;43.274;26.924;2024-03-22T01:03:20;13.07;;;10.93;;
37855;SDS011;23694;43.274;26.924;2024-03-22T01:05:47;13.13;;;10.63;;
37855;SDS011;23694;43.274;26.924;2024-03-22T01:08:14;11.90;;;9.90;;
37855;SDS011;23694;43.274;26.924;2024-03-22T01:10:41;12.83;;;10.57;;
37855;SDS011;23694;43.274;26.924;2024-03-22T01:13:07;12.50;;;9.77;;
37855;SDS011;23694;43.274;26.924;2024-03-22T01:15:34;13.77;;;11.33;;
37855;SDS011;23694;43.274;26.924;2024-03-22T01:18:00;13.67;;;11.40;;
37855;SDS011;23694;43.274;26.924;2024-03-22T01:20:26;16.63;;;13.13;;
37855;SDS011;23694;43.274;26.924;2024-03-22T01:22:52;14.60;;;12.33;;
37855;SDS011;23694;43.274;26.924;2024-03-22T01:25:19;14.63;;;12.30;;
37855;SDS011;23694;43.274;26.924;2024-03-22T01:27:45;17.70;;;13.47;;
37855;SDS011;23694;43.274;26.924;2024-03-22T01:30:11;16.97;;;14.10;;
37855;SDS011;23694;43.274;26.924;2024-03-22T01:32:37;17.63;;;13.77;;
37855;SDS011;23694;43.274;26.924;2024-03-22T01:35:03;19.93;;;15.00;;
37855;SDS011;23694;43.274;26.924;2024-03-22T01:37:30;20.57;;;14.93;;
37855;SDS011;23694;43.274;26.924;2024-03-22T01:39:56;20.27;;;14.87;;
37855;SDS011;23694;43.274;26.924;2024-03-22T01:42:23;20.73;;;15.10;;
37855;SDS011;23694;43.274;26.924;2024-03-22T01:44:49;18.70;;;14.50;;
37855;SDS011;23694;43.274;26.924;2024-03-22T01:47:16;16.97;;;14.00;;
37855;SDS011;23694;43.274;26.924;2024-03-22T01:49:43;18.80;;;14.00;;
37855;SDS011;23694;43.274;26.924;2024-03-22T01:52:09;16.17;;;13.73;;
37855;SDS011;23694;43.274;26.924;2024-03-22T01:54:35;17.60;;;13.93;;
37855;SDS011;23694;43.274;26.924;2024-03-22T01:57:02;17.37;;;13.60;;
37855;SDS011;23694;43.274;26.924;2024-03-22T01:59:28;19.53;;;14.10;;
37855;SDS011;23694;43.274;26.924;2024-03-22T02:01:55;18.70;;;13.77;;
37855;SDS011;23694;43.274;26.924;2024-03-22T02:04:22;19.33;;;15.03;;
37855;SDS011;23694;43.274;26.924;2024-03-22T02:06:48;18.43;;;14.53;;
37855;SDS011;23694;43.274;26.924;2024-03-22T02:09:14;19.47;;;14.40;;
37855;SDS011;23694;43.274;26.924;2024-03-22T02:11:44;18.90;;;13.97;;
37855;SDS011;23694;43.274;26.924;2024-03-22T02:14:12;22.03;;;14.47;;
37855;SDS011;23694;43.274;26.924;2024-03-22T02:16:39;21.13;;;15.83;;
37855;SDS011;23694;43.274;26.924;2024-03-22T02:19:07;18.20;;;14.57;;
37855;SDS011;23694;43.274;26.924;2024-03-22T02:21:34;18.77;;;13.67;;
37855;SDS011;23694;43.274;26.924;2024-03-22T02:24:01;21.70;;;15.63;;
37855;SDS011;23694;43.274;26.924;2024-03-22T02:26:27;18.93;;;14.37;;
37855;SDS011;23694;43.274;26.924;2024-03-22T02:28:53;21.07;;;16.10;;
37855;SDS011;23694;43.274;26.924;2024-03-22T02:31:19;20.57;;;15.33;;
37855;SDS011;23694;43.274;26.924;2024-03-22T02:33:46;18.53;;;14.43;;
37855;SDS011;23694;43.274;26.924;2024-03-22T02:36:12;20.47;;;15.30;;
37855;SDS011;23694;43.274;26.924;2024-03-22T02:38:38;17.80;;;13.67;;
37855;SDS011;23694;43.274;26.924;2024-03-22T02:41:04;17.83;;;13.93;;
37855;SDS011;23694;43.274;26.924;2024-03-22T02:43:30;17.47;;;13.53;;
37855;SDS011;23694;43.274;26.924;2024-03-22T02:45:56;17.23;;;13.37;;
37855;SDS011;23694;43.274;26.924;2024-03-22T02:48:22;18.97;;;13.67;;
37855;SDS011;23694;43.274;26.924;2024-03-22T02:50:49;18.27;;;13.93;;
37855;SDS011;23694;43.274;26.924;2024-03-22T02:53:15;18.43;;;14.03;;
37855;SDS011;23694;43.274;26.924;2024-03-22T02:55:41;18.97;;;13.63;;
37855;SDS011;23694;43.274;26.924;2024-03-22T02:58:07;20.27;;;13.63;;
37855;SDS011;23694;43.274;26.924;2024-03-22T03:00:37;17.97;;;13.60;;
37855;SDS011;23694;43.274;26.924;2024-03-22T03:03:04;18.10;;;13.77;;
37855;SDS011;23694;43.274;26.924;2024-03-22T03:05:31;17.90;;;13.53;;
37855;SDS011;23694;43.274;26.924;2024-03-22T03:07:58;17.63;;;13.33;;
37855;SDS011;23694;43.274;26.924;2024-03-22T03:10:25;18.00;;;13.30;;
37855;SDS011;23694;43.274;26.924;2024-03-22T03:12:54;18.37;;;13.13;;
37855;SDS011;23694;43.274;26.924;2024-03-22T03:15:20;17.10;;;13.00;;
37855;SDS011;23694;43.274;26.924;2024-03-22T03:17:47;17.03;;;13.53;;
37855;SDS011;23694;43.274;26.924;2024-03-22T03:20:13;19.03;;;13.60;;
37855;SDS011;23694;43.274;26.924;2024-03-22T03:22:41;19.30;;;13.60;;
37855;SDS011;23694;43.274;26.924;2024-03-22T03:25:07;19.27;;;14.00;;
37855;SDS011;23694;43.274;26.924;2024-03-22T03:27:33;18.50;;;13.87;;
37855;SDS011;23694;43.274;26.924;2024-03-22T03:30:00;18.40;;;13.43;;
37855;SDS011;23694;43.274;26.924;2024-03-22T03:32:27;19.70;;;14.17;;
37855;SDS011;23694;43.274;26.924;2024-03-22T03:34:54;16.37;;;12.70;;
37855;SDS011;23694;43.274;26.924;2024-03-22T03:37:20;15.73;;;11.90;;
37855;SDS011;23694;43.274;26.924;2024-03-22T03:39:46;20.40;;;14.20;;
37855;SDS011;23694;43.274;26.924;2024-03-22T03:42:13;18.27;;;14.47;;
37855;SDS011;23694;43.274;26.924;2024-03-22T03:44:40;18.00;;;15.20;;
37855;SDS011;23694;43.274;26.924;2024-03-22T03:47:07;24.87;;;17.97;;
37855;SDS011;23694;43.274;26.924;2024-03-22T03:49:33;21.40;;;15.77;;
37855;SDS011;23694;43.274;26.924;2024-03-22T03:51:59;22.13;;;16.50;;
37855;SDS011;23694;43.274;26.924;2024-03-22T03:54:25;22.53;;;16.50;;
37855;SDS011;23694;43.274;26.924;2024-03-22T03:56:51;20.10;;;15.37;;
37855;SDS011;23694;43.274;26.924;2024-03-22T03:59:18;19.67;;;15.20;;
37855;SDS011;23694;43.274;26.924;2024-03-22T04:01:45;21.60;;;15.97;;
37855;SDS011;23694;43.274;26.924;2024-03-22T04:04:11;20.00;;;14.77;;
37855;SDS011;23694;43.274;26.924;2024-03-22T04:06:38;21.77;;;16.20;;
37855;SDS011;23694;43.274;26.924;2024-03-22T04:09:04;25.60;;;18.70;;
37855;SDS011;23694;43.274;26.924;2024-03-22T04:11:30;23.27;;;17.03;;
37855;SDS011;23694;43.274;26.924;2024-03-22T04:13:57;21.67;;;17.07;;
37855;SDS011;23694;43.274;26.924;2024-03-22T04:16:23;23.13;;;17.60;;
37855;SDS011;23694;43.274;26.924;2024-03-22T04:18:49;23.43;;;16.93;;
37855;SDS011;23694;43.274;26.924;2024-03-22T04:21:15;23.10;;;16.80;;
37855;SDS011;23694;43.274;26.924;2024-03-22T04:23:41;24.40;;;17.63;;
37855;SDS011;23694;43.274;26.924;2024-03-22T04:26:07;24.23;;;17.60;;
37855;SDS011;23694;43.274;26.924;2024-03-22T04:28:33;23.23;;;17.03;;
37855;SDS011;23694;43.274;26.924;2024-03-22T04:31:00;20.87;;;16.20;;
37855;SDS011;23694;43.274;26.924;2024-03-22T04:33:28;20.73;;;15.00;;
37855;SDS011;23694;43.274;26.924;2024-03-22T04:35:56;21.27;;;14.53;;
37855;SDS011;23694;43.274;26.924;2024-03-22T04:38:24;19.03;;;14.00;;
37855;SDS011;23694;43.274;26.924;2024-03-22T04:40:53;18.80;;;13.90;;
37855;SDS011;23694;43.274;26.924;2024-03-22T04:43:20;19.80;;;14.77;;
37855;SDS011;23694;43.274;26.924;2024-03-22T04:45:46;29.30;;;17.67;;
37855;SDS011;23694;43.274;26.924;2024-03-22T04:48:14;46.10;;;24.13;;
37855;SDS011;23694;43.274;26.924;2024-03-22T04:50:42;37.33;;;20.63;;
37855;SDS011;23694;43.274;26.924;2024-03-22T04:53:08;30.43;;;18.37;;
37855;SDS011;23694;43.274;26.924;2024-03-22T04:55:35;26.97;;;17.97;;
37855;SDS011;23694;43.274;26.924;2024-03-22T04:58:02;23.00;;;16.50;;
37855;SDS011;23694;43.274;26.924;2024-03-22T05:00:28;26.17;;;19.00;;
37855;SDS011;23694;43.274;26.924;2024-03-22T05:02:54;25.57;;;16.70;;
37855;SDS011;23694;43.274;26.924;2024-03-22T05:05:20;22.63;;;17.00;;
37855;SDS011;23694;43.274;26.924;2024-03-22T05:07:47;23.80;;;16.97;;
37855;SDS011;23694;43.274;26.924;2024-03-22T05:10:13;14.67;;;11.40;;
37855;SDS011;23694;43.274;26.924;2024-03-22T05:12:40;16.83;;;11.00;;
37855;SDS011;23694;43.274;26.924;2024-03-22T05:15:06;18.47;;;14.50;;
37855;SDS011;23694;43.274;26.924;2024-03-22T05:17:32;18.53;;;13.73;;
37855;SDS011;23694;43.274;26.924;2024-03-22T05:19:59;13.87;;;9.33;;
37855;SDS011;23694;43.274;26.924;2024-03-22T05:22:25;12.73;;;8.57;;
37855;SDS011;23694;43.274;26.924;2024-03-22T05:24:55;10.93;;;8.47;;
37855;SDS011;23694;43.274;26.924;2024-03-22T05:27:25;20.87;;;15.80;;
37855;SDS011;23694;43.274;26.924;2024-03-22T05:29:51;28.23;;;20.83;;
37855;SDS011;23694;43.274;26.924;2024-03-22T05:32:18;16.57;;;13.23;;
37855;SDS011;23694;43.274;26.924;2024-03-22T05:34:44;13.60;;;8.00;;
37855;SDS011;23694;43.274;26.924;2024-03-22T05:37:10;9.83;;;7.77;;
37855;SDS011;23694;43.274;26.924;2024-03-22T05:39:37;9.03;;;7.60;;
37855;SDS011;23694;43.274;26.924;2024-03-22T05:42:05;11.50;;;7.60;;
37855;SDS011;23694;43.274;26.924;2024-03-22T05:44:31;8.43;;;7.30;;
37855;SDS011;23694;43.274;26.924;2024-03-22T05:46:57;10.37;;;7.03;;
37855;SDS011;23694;43.274;26.924;2024-03-22T05:49:23;13.87;;;7.73;;
37855;SDS011;23694;43.274;26.924;2024-03-22T05:51:50;11.80;;;7.90;;
37855;SDS011;23694;43.274;26.924;2024-03-22T05:54:16;10.90;;;8.70;;
37855;SDS011;23694;43.274;26.924;2024-03-22T05:56:42;12.20;;;8.20;;
37855;SDS011;23694;43.274;26.924;2024-03-22T05:59:08;11.00;;;7.63;;
37855;SDS011;23694;43.274;26.924;2024-03-22T06:01:34;9.77;;;7.70;;
37855;SDS011;23694;43.274;26.924;2024-03-22T06:04:00;9.90;;;7.40;;
37855;SDS011;23694;43.274;26.924;2024-03-22T06:06:27;12.70;;;8.50;;
37855;SDS011;23694;43.274;26.924;2024-03-22T06:08:54;14.80;;;10.60;;
37855;SDS011;23694;43.274;26.924;2024-03-22T06:11:22;10.83;;;8.50;;
37855;SDS011;23694;43.274;26.924;2024-03-22T06:13:48;10.10;;;7.53;;
37855;SDS011;23694;43.274;26.924;2024-03-22T06:16:16;14.07;;;7.67;;
37855;SDS011;23694;43.274;26.924;2024-03-22T06:18:42;11.27;;;7.20;;
37855;SDS011;23694;43.274;26.924;2024-03-22T06:21:08;8.93;;;6.47;;
37855;SDS011;23694;43.274;26.924;2024-03-22T06:23:34;8.73;;;6.87;;
37855;SDS011;23694;43.274;26.924;2024-03-22T06:26:01;9.87;;;7.93;;
37855;SDS011;23694;43.274;26.924;2024-03-22T06:28:27;8.93;;;6.90;;
37855;SDS011;23694;43.274;26.924;2024-03-22T06:30:54;8.63;;;7.63;;
37855;SDS011;23694;43.274;26.924;2024-03-22T06:33:20;11.50;;;8.10;;
37855;SDS011;23694;43.274;26.924;2024-03-22T06:35:47;10.53;;;8.50;;
37855;SDS011;23694;43.274;26.924;2024-03-22T06:38:13;9.37;;;7.93;;
37855;SDS011;23694;43.274;26.924;2024-03-22T06:40:39;14.07;;;8.73;;
37855;SDS011;23694;43.274;26.924;2024-03-22T06:43:05;13.90;;;9.10;;
37855;SDS011;23694;43.274;26.924;2024-03-22T06:45:32;11.77;;;9.23;;
37855;SDS011;23694;43.274;26.924;2024-03-22T06:47:58;12.37;;;9.67;;
37855;SDS011;23694;43.274;26.924;2024-03-22T06:50:24;17.97;;;10.53;;
37855;SDS011;23694;43.274;26.924;2024-03-22T06:52:50;18.87;;;11.00;;
37855;SDS011;23694;43.274;26.924;2024-03-22T06:55:20;15.77;;;10.97;;
37855;SDS011;23694;43.274;26.924;2024-03-22T06:57:48;19.03;;;12.60;;
37855;SDS011;23694;43.274;26.924;2024-03-22T07:00:16;21.17;;;14.43;;
37855;SDS011;23694;43.274;26.924;2024-03-22T07:02:43;40.50;;;25.80;;
37855;SDS011;23694;43.274;26.924;2024-03-22T07:05:11;14.80;;;11.13;;
37855;SDS011;23694;43.274;26.924;2024-03-22T07:07:37;15.20;;;10.13;;
37855;SDS011;23694;43.274;26.924;2024-03-22T07:10:04;11.93;;;9.53;;
37855;SDS011;23694;43.274;26.924;2024-03-22T07:12:33;24.70;;;10.17;;
37855;SDS011;23694;43.274;26.924;2024-03-22T07:15:00;17.60;;;10.13;;
37855;SDS011;23694;43.274;26.924;2024-03-22T07:17:27;16.33;;;8.87;;
37855;SDS011;23694;43.274;26.924;2024-03-22T07:19:54;12.17;;;8.73;;
37855;SDS011;23694;43.274;26.924;2024-03-22T07:22:22;11.77;;;8.37;;
37855;SDS011;23694;43.274;26.924;2024-03-22T07:24:48;10.97;;;8.57;;
37855;SDS011;23694;43.274;26.924;2024-03-22T07:30:05;16.73;;;10.70;;
37855;SDS011;23694;43.274;26.924;2024-03-22T07:32:34;12.43;;;9.27;;
37855;SDS011;23694;43.274;26.924;2024-03-22T07:35:03;12.50;;;9.63;;
37855;SDS011;23694;43.274;26.924;2024-03-22T07:37:29;16.03;;;9.70;;
37855;SDS011;23694;43.274;26.924;2024-03-22T07:39:56;19.53;;;9.63;;
37855;SDS011;23694;43.274;26.924;2024-03-22T07:42:23;10.13;;;7.90;;
37855;SDS011;23694;43.274;26.924;2024-03-22T07:44:49;11.80;;;8.57;;
37855;SDS011;23694;43.274;26.924;2024-03-22T07:47:16;11.10;;;8.90;;
37855;SDS011;23694;43.274;26.924;2024-03-22T07:49:43;12.27;;;9.40;;
37855;SDS011;23694;43.274;26.924;2024-03-22T07:52:09;13.63;;;9.47;;
37855;SDS011;23694;43.274;26.924;2024-03-22T07:54:35;12.00;;;8.67;;
37855;SDS011;23694;43.274;26.924;2024-03-22T07:57:01;12.40;;;9.83;;
37855;SDS011;23694;43.274;26.924;2024-03-22T07:59:29;17.27;;;10.53;;
37855;SDS011;23694;43.274;26.924;2024-03-22T08:01:56;13.07;;;10.00;;
37855;SDS011;23694;43.274;26.924;2024-03-22T08:04:23;11.83;;;9.43;;
37855;SDS011;23694;43.274;26.924;2024-03-22T08:06:52;13.97;;;10.20;;
37855;SDS011;23694;43.274;26.924;2024-03-22T08:09:19;13.10;;;9.40;;
37855;SDS011;23694;43.274;26.924;2024-03-22T08:11:46;12.53;;;9.80;;
37855;SDS011;23694;43.274;26.924;2024-03-22T08:14:13;11.37;;;8.63;;
37855;SDS011;23694;43.274;26.924;2024-03-22T08:16:40;12.80;;;8.63;;
37855;SDS011;23694;43.274;26.924;2024-03-22T08:19:06;20.70;;;12.17;;
37855;SDS011;23694;43.274;26.924;2024-03-22T08:21:33;11.90;;;9.80;;
37855;SDS011;23694;43.274;26.924;2024-03-22T08:24:02;13.10;;;9.10;;
37855;SDS011;23694;43.274;26.924;2024-03-22T08:26:28;12.03;;;8.70;;
37855;SDS011;23694;43.274;26.924;2024-03-22T08:28:54;11.37;;;9.13;;
37855;SDS011;23694;43.274;26.924;2024-03-22T08:31:21;11.13;;;8.87;;
37855;SDS011;23694;43.274;26.924;2024-03-22T08:33:51;12.27;;;8.33;;
37855;SDS011;23694;43.274;26.924;2024-03-22T08:36:17;11.73;;;8.37;;
37855;SDS011;23694;43.274;26.924;2024-03-22T08:38:44;14.20;;;9.03;;
37855;SDS011;23694;43.274;26.924;2024-03-22T08:41:10;13.40;;;9.13;;
37855;SDS011;23694;43.274;26.924;2024-03-22T08:43:36;11.13;;;8.47;;
37855;SDS011;23694;43.274;26.924;2024-03-22T08:46:03;12.23;;;8.97;;
37855;SDS011;23694;43.274;26.924;2024-03-22T08:48:29;14.73;;;8.57;;
37855;SDS011;23694;43.274;26.924;2024-03-22T08:50:56;13.40;;;9.77;;
37855;SDS011;23694;43.274;26.924;2024-03-22T08:53:22;15.93;;;10.30;;
37855;SDS011;23694;43.274;26.924;2024-03-22T08:55:49;13.30;;;10.07;;
37855;SDS011;23694;43.274;26.924;2024-03-22T08:58:15;23.47;;;15.80;;
37855;SDS011;23694;43.274;26.924;2024-03-22T09:00:43;13.93;;;9.50;;
37855;SDS011;23694;43.274;26.924;2024-03-22T09:03:10;9.10;;;7.17;;
37855;SDS011;23694;43.274;26.924;2024-03-22T09:05:36;13.37;;;8.37;;
37855;SDS011;23694;43.274;26.924;2024-03-22T09:08:02;10.63;;;7.77;;
37855;SDS011;23694;43.274;26.924;2024-03-22T09:10:29;13.17;;;8.80;;
37855;SDS011;23694;43.274;26.924;2024-03-22T09:12:56;16.43;;;10.57;;
37855;SDS011;23694;43.274;26.924;2024-03-22T09:15:22;12.83;;;8.63;;
37855;SDS011;23694;43.274;26.924;2024-03-22T09:17:48;11.97;;;8.60;;
37855;SDS011;23694;43.274;26.924;2024-03-22T09:20:15;9.57;;;7.10;;
37855;SDS011;23694;43.274;26.924;2024-03-22T09:22:41;9.00;;;7.17;;
37855;SDS011;23694;43.274;26.924;2024-03-22T09:25:07;15.10;;;7.80;;
37855;SDS011;23694;43.274;26.924;2024-03-22T09:27:34;11.70;;;7.77;;
37855;SDS011;23694;43.274;26.924;2024-03-22T09:30:00;6.67;;;5.87;;
37855;SDS011;23694;43.274;26.924;2024-03-22T09:32:30;8.90;;;6.27;;
37855;SDS011;23694;43.274;26.924;2024-03-22T09:34:56;10.80;;;6.43;;
37855;SDS011;23694;43.274;26.924;2024-03-22T09:37:22;11.43;;;6.57;;
37855;SDS011;23694;43.274;26.924;2024-03-22T09:39:48;10.53;;;5.67;;
37855;SDS011;23694;43.274;26.924;2024-03-22T09:42:17;10.70;;;5.50;;
37855;SDS011;23694;43.274;26.924;2024-03-22T09:44:46;10.73;;;6.00;;
37855;SDS011;23694;43.274;26.924;2024-03-22T09:47:14;13.30;;;9.80;;
37855;SDS011;23694;43.274;26.924;2024-03-22T09:49:42;10.13;;;6.37;;
37855;SDS011;23694;43.274;26.924;2024-03-22T09:52:13;8.57;;;5.40;;
37855;SDS011;23694;43.274;26.924;2024-03-22T09:54:43;11.03;;;5.13;;
37855;SDS011;23694;43.274;26.924;2024-03-22T09:57:19;11.87;;;5.70;;
37855;SDS011;23694;43.274;26.924;2024-03-22T09:59:47;17.43;;;6.80;;
37855;SDS011;23694;43.274;26.924;2024-03-22T10:02:13;10.80;;;6.30;;
37855;SDS011;23694;43.274;26.924;2024-03-22T10:04:42;7.40;;;5.30;;
37855;SDS011;23694;43.274;26.924;2024-03-22T10:07:09;8.30;;;4.70;;
37855;SDS011;23694;43.274;26.924;2024-03-22T10:09:36;8.23;;;4.63;;
37855;SDS011;23694;43.274;26.924;2024-03-22T10:12:03;5.10;;;4.13;;
37855;SDS011;23694;43.274;26.924;2024-03-22T10:14:30;8.57;;;5.33;;
37855;SDS011;23694;43.274;26.924;2024-03-22T10:16:57;8.63;;;5.80;;
37855;SDS011;23694;43.274;26.924;2024-03-22T10:19:25;8.80;;;5.83;;
37855;SDS011;23694;43.274;26.924;2024-03-22T10:22:03;6.77;;;5.20;;
37855;SDS011;23694;43.274;26.924;2024-03-22T10:24:31;7.43;;;4.80;;
37855;SDS011;23694;43.274;26.924;2024-03-22T10:27:00;6.97;;;5.27;;
37855;SDS011;23694;43.274;26.924;2024-03-22T10:29:26;17.70;;;9.30;;
37855;SDS011;23694;43.274;26.924;2024-03-22T10:31:53;6.53;;;5.50;;
37855;SDS011;23694;43.274;26.924;2024-03-22T10:34:21;14.30;;;6.40;;
37855;SDS011;23694;43.274;26.924;2024-03-22T10:36:48;5.80;;;5.13;;
37855;SDS011;23694;43.274;26.924;2024-03-22T10:39:18;6.30;;;4.97;;
37855;SDS011;23694;43.274;26.924;2024-03-22T10:41:45;6.10;;;5.37;;
37855;SDS011;23694;43.274;26.924;2024-03-22T10:44:12;7.63;;;6.30;;
37855;SDS011;23694;43.274;26.924;2024-03-22T10:46:38;7.60;;;5.60;;
37855;SDS011;23694;43.274;26.924;2024-03-22T10:49:20;10.30;;;6.47;;
37855;SDS011;23694;43.274;26.924;2024-03-22T10:51:51;6.53;;;5.13;;
37855;SDS011;23694;43.274;26.924;2024-03-22T10:54:20;7.20;;;5.60;;
37855;SDS011;23694;43.274;26.924;2024-03-22T10:56:50;6.87;;;4.97;;
37855;SDS011;23694;43.274;26.924;2024-03-22T10:59:21;6.57;;;5.10;;
37855;SDS011;23694;43.274;26.924;2024-03-22T11:01:48;8.53;;;5.67;;
37855;SDS011;23694;43.274;26.924;2024-03-22T11:04:16;7.30;;;4.93;;
37855;SDS011;23694;43.274;26.924;2024-03-22T11:06:47;6.73;;;4.40;;
37855;SDS011;23694;43.274;26.924;2024-03-22T11:09:23;7.47;;;5.17;;
37855;SDS011;23694;43.274;26.924;2024-03-22T11:11:52;5.80;;;4.97;;
37855;SDS011;23694;43.274;26.924;2024-03-22T11:14:19;6.97;;;5.67;;
37855;SDS011;23694;43.274;26.924;2024-03-22T11:16:52;5.83;;;5.00;;
37855;SDS011;23694;43.274;26.924;2024-03-22T11:19:21;7.83;;;5.33;;
37855;SDS011;23694;43.274;26.924;2024-03-22T11:21:47;9.10;;;5.60;;
37855;SDS011;23694;43.274;26.924;2024-03-22T11:24:13;11.47;;;5.17;;
37855;SDS011;23694;43.274;26.924;2024-03-22T11:26:39;8.80;;;5.60;;
37855;SDS011;23694;43.274;26.924;2024-03-22T11:29:05;6.83;;;5.50;;
37855;SDS011;23694;43.274;26.924;2024-03-22T11:31:31;6.90;;;5.67;;
37855;SDS011;23694;43.274;26.924;2024-03-22T11:33:58;7.07;;;5.53;;
37855;SDS011;23694;43.274;26.924;2024-03-22T11:36:24;7.63;;;5.37;;
37855;SDS011;23694;43.274;26.924;2024-03-22T11:38:50;9.07;;;5.57;;
37855;SDS011;23694;43.274;26.924;2024-03-22T11:41:24;8.43;;;5.20;;
37855;SDS011;23694;43.274;26.924;2024-03-22T11:43:53;7.37;;;5.53;;
37855;SDS011;23694;43.274;26.924;2024-03-22T11:46:20;7.30;;;5.03;;
37855;SDS011;23694;43.274;26.924;2024-03-22T11:48:51;8.27;;;5.13;;
37855;SDS011;23694;43.274;26.924;2024-03-22T11:51:19;8.07;;;6.37;;
37855;SDS011;23694;43.274;26.924;2024-03-22T11:53:52;7.00;;;5.00;;
37855;SDS011;23694;43.274;26.924;2024-03-22T11:56:21;9.37;;;5.70;;
37855;SDS011;23694;43.274;26.924;2024-03-22T11:58:48;8.60;;;5.80;;
37855;SDS011;23694;43.274;26.924;2024-03-22T12:01:15;6.63;;;4.90;;
37855;SDS011;23694;43.274;26.924;2024-03-22T12:03:44;6.80;;;4.70;;
37855;SDS011;23694;43.274;26.924;2024-03-22T12:06:13;7.33;;;4.83;;
37855;SDS011;23694;43.274;26.924;2024-03-22T12:08:41;7.50;;;4.70;;
37855;SDS011;23694;43.274;26.924;2024-03-22T12:11:08;6.27;;;4.30;;
37855;SDS011;23694;43.274;26.924;2024-03-22T12:13:36;7.20;;;4.60;;
37855;SDS011;23694;43.274;26.924;2024-03-22T12:16:03;8.03;;;4.33;;
37855;SDS011;23694;43.274;26.924;2024-03-22T12:18:30;7.03;;;4.03;;
37855;SDS011;23694;43.274;26.924;2024-03-22T12:20:56;7.00;;;5.07;;
37855;SDS011;23694;43.274;26.924;2024-03-22T12:23:23;4.07;;;3.57;;
37855;SDS011;23694;43.274;26.924;2024-03-22T12:25:50;5.30;;;4.33;;
37855;SDS011;23694;43.274;26.924;2024-03-22T12:28:17;6.10;;;4.03;;
37855;SDS011;23694;43.274;26.924;2024-03-22T12:30:44;4.73;;;3.73;;
37855;SDS011;23694;43.274;26.924;2024-03-22T12:33:10;5.67;;;3.40;;
37855;SDS011;23694;43.274;26.924;2024-03-22T12:35:37;4.53;;;3.27;;
37855;SDS011;23694;43.274;26.924;2024-03-22T12:38:07;4.13;;;3.43;;
37855;SDS011;23694;43.274;26.924;2024-03-22T12:40:39;4.22;;;2.95;;
37855;SDS011;23694;43.274;26.924;2024-03-22T12:43:05;7.33;;;3.50;;
37855;SDS011;23694;43.274;26.924;2024-03-22T12:45:32;13.23;;;4.40;;
37855;SDS011;23694;43.274;26.924;2024-03-22T12:47:59;6.57;;;3.90;;
37855;SDS011;23694;43.274;26.924;2024-03-22T12:50:26;6.87;;;4.10;;
37855;SDS011;23694;43.274;26.924;2024-03-22T12:52:52;4.97;;;3.87;;
37855;SDS011;23694;43.274;26.924;2024-03-22T12:55:19;4.97;;;4.40;;
37855;SDS011;23694;43.274;26.924;2024-03-22T12:57:45;5.67;;;4.10;;
37855;SDS011;23694;43.274;26.924;2024-03-22T13:00:12;21.43;;;13.73;;
37855;SDS011;23694;43.274;26.924;2024-03-22T13:02:39;9.60;;;6.40;;
37855;SDS011;23694;43.274;26.924;2024-03-22T13:05:06;7.00;;;5.03;;
37855;SDS011;23694;43.274;26.924;2024-03-22T13:07:33;6.57;;;4.90;;
37855;SDS011;23694;43.274;26.924;2024-03-22T13:10:00;9.60;;;5.70;;
37855;SDS011;23694;43.274;26.924;2024-03-22T13:12:26;7.13;;;4.83;;
37855;SDS011;23694;43.274;26.924;2024-03-22T13:14:54;7.53;;;5.97;;
37855;SDS011;23694;43.274;26.924;2024-03-22T13:17:20;7.23;;;5.20;;
37855;SDS011;23694;43.274;26.924;2024-03-22T13:19:46;9.03;;;4.73;;
37855;SDS011;23694;43.274;26.924;2024-03-22T13:22:12;6.87;;;4.97;;
37855;SDS011;23694;43.274;26.924;2024-03-22T13:24:42;7.37;;;4.37;;
37855;SDS011;23694;43.274;26.924;2024-03-22T13:27:08;7.67;;;5.53;;
37855;SDS011;23694;43.274;26.924;2024-03-22T13:29:34;8.87;;;4.80;;
37855;SDS011;23694;43.274;26.924;2024-03-22T13:32:01;7.27;;;4.47;;
37855;SDS011;23694;43.274;26.924;2024-03-22T13:34:28;8.27;;;5.10;;
37855;SDS011;23694;43.274;26.924;2024-03-22T13:36:54;6.73;;;4.87;;
37855;SDS011;23694;43.274;26.924;2024-03-22T13:39:21;5.60;;;4.20;;
37855;SDS011;23694;43.274;26.924;2024-03-22T13:41:49;7.30;;;4.93;;
37855;SDS011;23694;43.274;26.924;2024-03-22T13:44:15;7.23;;;4.60;;
37855;SDS011;23694;43.274;26.924;2024-03-22T13:46:41;20.67;;;15.90;;
37855;SDS011;23694;43.274;26.924;2024-03-22T13:49:14;8.93;;;5.50;;
37855;SDS011;23694;43.274;26.924;2024-03-22T13:51:42;7.37;;;5.10;;
37855;SDS011;23694;43.274;26.924;2024-03-22T13:54:09;7.03;;;5.27;;
37855;SDS011;23694;43.274;26.924;2024-03-22T13:56:37;8.33;;;5.10;;
37855;SDS011;23694;43.274;26.924;2024-03-22T13:59:06;5.97;;;3.97;;
37855;SDS011;23694;43.274;26.924;2024-03-22T14:01:36;9.40;;;5.43;;
37855;SDS011;23694;43.274;26.924;2024-03-22T14:04:05;5.80;;;4.80;;
37855;SDS011;23694;43.274;26.924;2024-03-22T14:06:32;9.17;;;4.73;;
37855;SDS011;23694;43.274;26.924;2024-03-22T14:08:58;13.37;;;7.03;;
37855;SDS011;23694;43.274;26.924;2024-03-22T14:11:29;8.80;;;5.73;;
37855;SDS011;23694;43.274;26.924;2024-03-22T14:13:56;8.57;;;5.10;;
37855;SDS011;23694;43.274;26.924;2024-03-22T14:16:23;8.87;;;4.90;;
37855;SDS011;23694;43.274;26.924;2024-03-22T14:18:49;8.53;;;5.57;;
37855;SDS011;23694;43.274;26.924;2024-03-22T14:21:16;6.73;;;4.73;;
37855;SDS011;23694;43.274;26.924;2024-03-22T14:23:45;10.60;;;6.03;;